Time;durP1;ratioP1;P1;durP2;ratioP2;P2;SDS_P1;SDS_P2;PMS_P1;PMS_P2;Temp;Humidity;BMP_temperature;BMP_pressure;BME280_temperature;BME280_humidity;BME280_pressure;Samples;Min_cycle;Max_cycle;Signal;HPM_P1;HPM_P2
2023/08/09 00:02:01;;;;;;;9.63;2.67;;;;;;;19.95;56.32;99515.34;5025072;28;20048;-79
2023/08/09 00:04:27;;;;;;;4.57;2.58;;;;;;;19.91;56.57;99516.13;5030418;28;20091;-79
2023/08/09 00:06:52;;;;;;;4.22;3.05;;;;;;;19.53;56.50;99515.50;5031767;28;20033;-79
2023/08/09 00:09:20;;;;;;;7.20;6.50;;;;;;;18.96;59.45;99504.50;5030762;28;20112;-79
2023/08/09 00:11:45;;;;;;;3.90;3.38;;;;;;;19.14;58.83;99505.50;5020186;28;20481;-79
2023/08/09 00:14:11;;;;;;;5.68;3.22;;;;;;;18.77;59.58;99509.19;5031684;28;20108;-79
2023/08/09 00:16:36;;;;;;;4.45;3.50;;;;;;;18.83;59.87;99504.81;5029714;28;20029;-79
2023/08/09 00:19:02;;;;;;;4.10;3.20;;;;;;;18.72;59.90;99509.56;5027030;28;20063;-79
2023/08/09 00:21:28;;;;;;;7.25;3.28;;;;;;;19.16;58.91;99516.44;5031240;28;20132;-79
2023/08/09 00:23:53;;;;;;;3.78;3.35;;;;;;;19.27;57.84;99513.69;5045767;28;20484;-79
2023/08/09 00:26:19;;;;;;;4.85;3.05;;;;;;;19.17;57.82;99521.72;5031816;28;20037;-79
2023/08/09 00:28:44;;;;;;;3.72;3.42;;;;;;;19.12;57.84;99515.59;5029083;28;20043;-79
2023/08/09 00:31:10;;;;;;;6.20;4.15;;;;;;;18.91;57.78;99512.16;5031345;28;20025;-79
2023/08/09 00:33:36;;;;;;;7.30;3.10;;;;;;;18.88;58.47;99512.94;5031064;28;20029;-79
2023/08/09 00:36:01;;;;;;;3.35;2.90;;;;;;;18.75;58.82;99501.06;5031326;28;20028;-79
2023/08/09 00:38:27;;;;;;;3.75;3.40;;;;;;;18.87;58.62;99505.66;5030673;28;20499;-79
2023/08/09 00:40:52;;;;;;;3.88;3.30;;;;;;;18.98;58.14;99499.25;5017432;28;20110;-79
2023/08/09 00:43:18;;;;;;;4.55;3.50;;;;;;;19.05;57.91;99497.31;5030678;28;20393;-79
2023/08/09 00:45:46;;;;;;;4.15;3.70;;;;;;;19.07;57.73;99499.78;5029282;28;20119;-79
2023/08/09 00:48:12;;;;;;;3.63;3.10;;;;;;;19.16;57.43;99496.59;5029650;28;20037;-79
2023/08/09 00:50:39;;;;;;;5.80;3.33;;;;;;;19.15;58.01;99489.31;5031041;28;20026;-79
2023/08/09 00:53:05;;;;;;;4.03;2.83;;;;;;;19.23;58.22;99496.63;5025050;28;20090;-79
2023/08/09 00:55:30;;;;;;;4.15;3.75;;;;;;;19.00;59.52;99494.03;5029932;28;20089;-79
2023/08/09 00:57:56;;;;;;;5.65;3.60;;;;;;;18.34;62.11;99499.06;5030821;28;20022;-79
2023/08/09 01:00:22;;;;;;;3.80;3.47;;;;;;;18.31;62.53;99488.50;5044671;28;20083;-79
2023/08/09 01:02:47;;;;;;;10.85;8.32;;;;;;;18.17;63.51;99500.50;5030906;28;20112;-79
2023/08/09 01:05:13;;;;;;;20.80;17.45;;;;;;;17.99;64.23;99493.75;5044517;28;20128;-79
2023/08/09 01:07:55;;;;;;;30.83;20.27;;;;;;;17.70;65.65;99496.22;5015856;28;20112;-79
2023/08/09 01:10:33;;;;;;;17.75;13.48;;;;;;;17.80;65.36;99499.19;5009866;28;20124;-79
2023/08/09 01:13:03;;;;;;;13.50;10.68;;;;;;;17.85;65.32;99500.88;5026421;28;20124;-79
2023/08/09 01:15:31;;;;;;;11.48;9.40;;;;;;;18.19;63.71;99486.75;5021772;28;20522;-79
2023/08/09 01:17:58;;;;;;;10.82;8.88;;;;;;;18.42;62.69;99499.94;5028740;28;20063;-79
2023/08/09 01:20:25;;;;;;;9.30;7.75;;;;;;;18.50;62.57;99498.81;5028714;28;20029;-79
2023/08/09 01:22:59;;;;;;;10.43;6.30;;;;;;;18.51;62.38;99499.63;5030864;28;20097;-79
2023/08/09 01:25:25;;;;;;;10.63;6.90;;;;;;;18.47;62.52;99510.13;5018001;28;20435;-79
2023/08/09 01:27:52;;;;;;;6.78;6.07;;;;;;;17.79;64.32;99486.25;5030790;28;20081;-79
2023/08/09 01:30:17;;;;;;;10.65;6.30;;;;;;;17.97;64.06;99508.28;5033118;28;20091;-79
2023/08/09 01:32:43;;;;;;;10.23;7.63;;;;;;;18.01;63.89;99509.16;5033393;28;20021;-79
2023/08/09 01:35:09;;;;;;;12.68;6.75;;;;;;;17.92;64.00;99508.63;5034595;28;20120;-79
2023/08/09 01:37:54;;;;;;;9.07;7.95;;;;;;;17.80;64.64;99507.66;5034551;28;20033;-79
2023/08/09 01:40:20;;;;;;;12.23;8.70;;;;;;;17.56;65.79;99508.97;5034209;28;20230;-79
2023/08/09 01:42:47;;;;;;;12.70;8.13;;;;;;;17.64;65.38;99512.72;5032994;28;20034;-79
2023/08/09 01:45:13;;;;;;;11.05;8.93;;;;;;;17.77;65.01;99513.28;5034185;28;20199;-79
2023/08/09 01:47:40;;;;;;;13.18;8.65;;;;;;;17.81;64.63;99514.16;5033338;28;20484;-79
2023/08/09 01:50:16;;;;;;;9.50;8.18;;;;;;;17.42;66.27;99523.69;5034206;28;20108;-79
2023/08/09 01:52:41;;;;;;;9.75;7.65;;;;;;;17.82;64.51;99507.28;5030658;28;20041;-79
2023/08/09 01:55:07;;;;;;;11.80;6.82;;;;;;;17.91;63.59;99510.63;5033341;28;20101;-79
2023/08/09 01:57:32;;;;;;;7.45;5.82;;;;;;;18.08;62.54;99514.13;5034282;28;20025;-79
2023/08/09 01:59:58;;;;;;;7.40;5.82;;;;;;;17.97;62.91;99508.28;5033896;28;20423;-79
2023/08/09 02:02:24;;;;;;;12.30;6.22;;;;;;;17.77;63.66;99514.09;5034224;28;20053;-79
2023/08/09 02:04:49;;;;;;;9.10;5.80;;;;;;;17.73;63.46;99513.22;5014795;28;20061;-79
2023/08/09 02:07:15;;;;;;;5.78;5.18;;;;;;;17.11;65.60;99511.50;5013055;28;20098;-79
2023/08/09 02:09:40;;;;;;;7.60;5.55;;;;;;;16.71;67.31;99516.44;5016532;28;20120;-79
2023/08/09 02:12:06;;;;;;;8.55;5.45;;;;;;;16.68;67.62;99514.38;5027085;28;20029;-79
2023/08/09 02:14:31;;;;;;;10.68;4.90;;;;;;;16.69;67.61;99516.81;5033360;28;20114;-79
2023/08/09 02:16:59;;;;;;;5.65;4.50;;;;;;;16.59;68.23;99519.44;5033882;28;20480;-79
2023/08/09 02:19:24;;;;;;;6.78;5.20;;;;;;;16.11;69.83;99520.56;5017205;28;20030;-79
2023/08/09 02:21:50;;;;;;;9.07;4.60;;;;;;;15.93;71.25;99520.19;5014080;28;20105;-79
2023/08/09 02:24:15;;;;;;;5.22;4.47;;;;;;;15.78;72.12;99531.09;5014089;28;20030;-79
2023/08/09 02:26:42;;;;;;;9.07;4.75;;;;;;;15.55;73.25;99528.19;5012560;28;20037;-79
2023/08/09 02:29:08;;;;;;;7.25;5.13;;;;;;;15.36;73.88;99528.94;5018975;28;20033;-79
2023/08/09 02:31:34;;;;;;;6.30;5.70;;;;;;;15.15;73.95;99527.25;5031928;28;20056;-79
2023/08/09 02:34:00;;;;;;;5.13;4.32;;;;;;;14.97;74.32;99523.97;5033341;28;20111;-79
2023/08/09 02:36:26;;;;;;;5.10;4.60;;;;;;;14.55;75.86;99528.09;5033337;28;20087;-79
2023/08/09 02:38:51;;;;;;;5.05;4.53;;;;;;;14.69;75.83;99525.66;5033534;28;20472;-79
2023/08/09 02:41:17;;;;;;;4.97;4.50;;;;;;;14.68;76.07;99524.03;5032531;28;20045;-79
2023/08/09 02:43:43;;;;;;;7.05;4.95;;;;;;;14.92;75.14;99525.06;5032485;28;20033;-79
2023/08/09 02:46:09;;;;;;;7.95;5.05;;;;;;;14.83;75.37;99527.22;5033291;28;20020;-79
2023/08/09 02:48:34;;;;;;;7.38;4.30;;;;;;;14.81;75.56;99533.25;5028413;28;20029;-79
2023/08/09 02:51:01;;;;;;;7.85;5.00;;;;;;;14.83;75.73;99539.31;5032817;28;20036;-79
2023/08/09 02:53:32;;;;;;;7.45;5.28;;;;;;;14.87;75.99;99545.06;5033073;28;20415;-79
2023/08/09 02:55:58;;;;;;;6.75;5.18;;;;;;;14.95;75.57;99546.84;5033082;28;20029;-79
2023/08/09 02:58:23;;;;;;;5.05;4.50;;;;;;;15.34;73.88;99559.50;5033170;28;20075;-79
2023/08/09 03:00:49;;;;;;;9.85;6.35;;;;;;;15.31;73.83;99555.41;5033034;28;20013;-79
2023/08/09 03:03:14;;;;;;;12.05;5.32;;;;;;;14.95;74.48;99558.13;5031747;28;20472;-79
2023/08/09 03:05:40;;;;;;;7.18;5.10;;;;;;;14.85;75.34;99559.50;5024853;28;20504;-79
2023/08/09 03:08:05;;;;;;;8.90;6.07;;;;;;;14.59;76.36;99562.78;5031833;28;20018;-79
2023/08/09 03:10:31;;;;;;;16.77;7.95;;;;;;;14.68;76.42;99566.25;5032829;28;20021;-79
2023/08/09 03:12:57;;;;;;;21.10;9.98;;;;;;;14.70;76.12;99574.34;5030932;28;20524;-79
2023/08/09 03:15:23;;;;;;;12.82;8.60;;;;;;;14.62;76.38;99573.34;5028129;28;20092;-79
2023/08/09 03:17:49;;;;;;;11.18;7.53;;;;;;;14.69;76.23;99578.34;5026465;28;20455;-79
2023/08/09 03:20:15;;;;;;;11.00;6.40;;;;;;;14.76;76.09;99589.81;5023125;28;20025;-79
2023/08/09 03:22:44;;;;;;;6.88;5.78;;;;;;;14.82;75.20;99587.53;5041438;28;20108;-79
2023/08/09 03:25:11;;;;;;;13.03;5.30;;;;;;;14.74;74.97;99589.34;5039104;28;20120;-78
2023/08/09 03:27:37;;;;;;;12.98;6.15;;;;;;;14.92;75.16;99591.84;5044440;28;20511;-77
2023/08/09 03:30:08;;;;;;;13.27;6.70;;;;;;;15.15;74.24;99594.84;5047440;28;20029;-78
2023/08/09 03:32:34;;;;;;;11.63;6.20;;;;;;;15.23;73.37;99596.69;5032401;28;20021;-75
2023/08/09 03:35:00;;;;;;;12.02;5.93;;;;;;;15.35;73.47;99598.56;5032130;28;20044;-74
2023/08/09 03:37:25;;;;;;;7.70;5.22;;;;;;;15.25;73.27;99588.66;5030803;28;20025;-76
2023/08/09 03:39:51;;;;;;;7.22;5.00;;;;;;;15.20;73.60;99594.56;5040944;28;20017;-75
2023/08/09 03:42:16;;;;;;;13.00;6.40;;;;;;;15.40;73.79;99606.75;5021879;28;20025;-75
2023/08/09 03:44:42;;;;;;;9.82;5.60;;;;;;;15.42;73.60;99606.38;5030684;28;20030;-75
2023/08/09 03:47:07;;;;;;;12.57;6.28;;;;;;;15.61;72.69;99604.81;5030391;28;20480;-77
2023/08/09 03:49:33;;;;;;;12.80;5.72;;;;;;;15.68;71.65;99599.34;5030872;28;20060;-77
2023/08/09 03:51:59;;;;;;;15.27;6.50;;;;;;;15.20;73.31;99610.66;5029669;28;20168;-77
2023/08/09 03:54:24;;;;;;;7.13;4.90;;;;;;;14.83;75.82;99612.53;5031329;28;20029;-77
2023/08/09 03:56:50;;;;;;;7.35;5.45;;;;;;;14.72;76.38;99611.41;5031467;28;20037;-77
2023/08/09 03:59:15;;;;;;;14.07;6.05;;;;;;;15.05;74.79;99612.28;5031627;28;20033;-77
2023/08/09 04:01:41;;;;;;;11.98;5.72;;;;;;;15.04;75.30;99617.13;5030047;28;20040;-77
2023/08/09 04:04:07;;;;;;;7.57;5.85;;;;;;;15.25;74.22;99614.03;5027962;28;20029;-77
2023/08/09 04:06:32;;;;;;;9.35;5.20;;;;;;;15.20;74.25;99619.91;5039832;28;20037;-77
2023/08/09 04:08:58;;;;;;;9.18;5.07;;;;;;;15.21;74.65;99618.75;5030104;28;20116;-77
2023/08/09 04:11:23;;;;;;;7.05;5.22;;;;;;;15.20;74.48;99628.38;5031368;28;20104;-77
2023/08/09 04:13:49;;;;;;;13.90;5.82;;;;;;;15.39;73.78;99632.47;5029631;28;20025;-77
2023/08/09 04:16:14;;;;;;;21.98;5.70;;;;;;;15.29;74.49;99628.22;5019107;28;20034;-77
2023/08/09 04:18:40;;;;;;;7.72;5.35;;;;;;;15.49;74.94;99629.13;5010620;28;20452;-77
2023/08/09 04:21:06;;;;;;;10.13;5.78;;;;;;;15.43;75.25;99628.56;5029063;28;20037;-77
2023/08/09 04:23:32;;;;;;;5.70;5.18;;;;;;;15.30;75.67;99630.66;5046866;28;20029;-77
2023/08/09 04:25:58;;;;;;;15.55;5.32;;;;;;;15.23;76.39;99633.31;5029404;28;20037;-77
2023/08/09 04:28:23;;;;;;;5.95;5.35;;;;;;;15.22;76.63;99626.03;5029062;28;20550;-77
2023/08/09 04:30:49;;;;;;;9.48;5.20;;;;;;;15.32;76.13;99632.28;5025168;28;20025;-77
2023/08/09 04:33:14;;;;;;;5.65;5.15;;;;;;;15.37;76.75;99629.22;5028463;28;20091;-77
2023/08/09 04:35:42;;;;;;;9.25;5.60;;;;;;;15.41;76.49;99630.09;5029434;28;20030;-77
2023/08/09 04:38:07;;;;;;;11.35;5.78;;;;;;;15.63;75.97;99625.84;5030594;28;20465;-77
2023/08/09 04:40:36;;;;;;;7.07;5.00;;;;;;;15.87;75.00;99623.97;5028283;28;20073;-77
2023/08/09 04:43:03;;;;;;;5.15;4.65;;;;;;;15.98;74.54;99638.34;5031010;28;20416;-77
2023/08/09 04:45:29;;;;;;;6.20;4.95;;;;;;;16.22;73.80;99636.47;5027651;28;20120;-73
2023/08/09 04:47:57;;;;;;;7.60;4.65;;;;;;;16.44;72.99;99645.41;5028675;28;20033;-74
2023/08/09 04:50:23;;;;;;;8.48;5.43;;;;;;;16.33;73.51;99651.63;5024741;28;20030;-77
2023/08/09 04:52:49;;;;;;;5.95;5.35;;;;;;;16.26;73.57;99646.63;5027322;28;20022;-76
2023/08/09 04:55:15;;;;;;;9.07;5.28;;;;;;;16.41;73.38;99642.13;5029893;28;20021;-76
2023/08/09 04:57:41;;;;;;;9.60;5.30;;;;;;;16.63;72.65;99648.19;5030482;28;20071;-76
2023/08/09 05:00:10;;;;;;;10.40;5.63;;;;;;;16.82;72.15;99655.03;5029365;28;20049;-76
2023/08/09 05:02:36;;;;;;;7.82;4.15;;;;;;;17.03;70.13;99656.69;5029379;28;20029;-76
2023/08/09 05:05:09;;;;;;;7.75;5.15;;;;;;;17.11;69.12;99653.59;5030236;28;20048;-76
2023/08/09 05:07:35;;;;;;;5.20;4.72;;;;;;;17.14;69.87;99646.41;5035021;28;20035;-76
2023/08/09 05:10:03;;;;;;;4.93;4.40;;;;;;;17.37;69.38;99656.88;5035135;28;20025;-76
2023/08/09 05:12:28;;;;;;;5.07;4.57;;;;;;;17.34;68.89;99654.81;5033923;28;20041;-77
2023/08/09 05:14:54;;;;;;;7.35;5.38;;;;;;;16.93;69.53;99661.72;5035120;28;20030;-76
2023/08/09 05:17:20;;;;;;;6.53;5.55;;;;;;;16.85;70.10;99668.41;5035098;28;20104;-76
2023/08/09 05:19:45;;;;;;;5.97;4.80;;;;;;;16.91;70.92;99663.28;5034722;28;20483;-77
2023/08/09 05:22:11;;;;;;;8.23;4.75;;;;;;;17.24;69.48;99671.19;5027091;28;20140;-74
2023/08/09 05:24:36;;;;;;;10.85;4.78;;;;;;;17.43;68.08;99671.50;5028150;28;20034;-75
2023/08/09 05:27:03;;;;;;;19.02;5.57;;;;;;;17.46;68.40;99677.22;5019854;28;20572;-76
2023/08/09 05:29:29;;;;;;;13.25;4.63;;;;;;;17.52;67.41;99667.25;5038934;28;20718;-75
2023/08/09 05:31:54;;;;;;;12.00;4.00;;;;;;;17.61;66.98;99671.81;5032128;28;20025;-75
2023/08/09 05:34:19;;;;;;;8.18;3.53;;;;;;;17.87;65.82;99671.03;5030277;28;20036;-75
2023/08/09 05:36:45;;;;;;;6.38;3.70;;;;;;;18.16;65.65;99665.84;5031715;28;20439;-74
2023/08/09 05:39:11;;;;;;;9.75;4.13;;;;;;;18.31;64.17;99674.53;5030506;28;20063;-73
2023/08/09 05:41:36;;;;;;;4.60;3.47;;;;;;;18.56;63.08;99671.25;5030542;28;20053;-73
2023/08/09 05:44:02;;;;;;;6.78;3.83;;;;;;;18.92;62.14;99675.31;5030530;28;20033;-73
2023/08/09 05:46:28;;;;;;;5.05;3.65;;;;;;;18.77;61.64;99674.34;5029004;28;20033;-73
2023/08/09 05:48:53;;;;;;;5.55;3.42;;;;;;;18.99;60.41;99674.56;5027118;28;20026;-74
2023/08/09 05:51:22;;;;;;;5.93;3.88;;;;;;;19.05;59.58;99673.06;5019513;28;20017;-75
2023/08/09 05:53:48;;;;;;;5.00;3.30;;;;;;;19.17;58.72;99671.16;5023879;28;20029;-73
2023/08/09 05:56:14;;;;;;;11.45;4.57;;;;;;;19.03;59.44;99666.97;5049133;28;20396;-73
2023/08/09 05:58:39;;;;;;;8.20;3.80;;;;;;;18.83;59.01;99671.97;5028137;28;20408;-72
2023/08/09 06:01:07;;;;;;;6.93;4.43;;;;;;;18.79;59.25;99671.09;5032694;28;20032;-72
2023/08/09 06:03:34;;;;;;;2.92;2.67;;;;;;;18.76;58.77;99672.72;5032272;28;20044;-72
2023/08/09 06:06:00;;;;;;;4.97;3.10;;;;;;;19.05;58.39;99670.22;5034082;28;20022;-72
2023/08/09 06:08:26;;;;;;;6.95;3.30;;;;;;;19.35;57.36;99674.16;5029720;28;20036;-72
2023/08/09 06:10:52;;;;;;;4.13;3.20;;;;;;;19.53;56.85;99668.66;5033683;28;20029;-73
2023/08/09 06:13:18;;;;;;;12.15;3.25;;;;;;;19.41;57.05;99666.94;5033384;28;20025;-73
2023/08/09 06:15:43;;;;;;;11.88;3.72;;;;;;;19.64;56.33;99663.06;5032653;28;20037;-72
2023/08/09 06:18:09;;;;;;;3.78;3.47;;;;;;;20.00;55.50;99669.06;5033318;28;20028;-72
2023/08/09 06:20:34;;;;;;;4.78;2.90;;;;;;;20.22;54.25;99674.88;5048940;28;20048;-73
2023/08/09 06:23:00;;;;;;;5.35;3.00;;;;;;;20.39;53.25;99661.16;5030178;28;20029;-73
2023/08/09 06:25:25;;;;;;;3.60;2.80;;;;;;;20.38;53.12;99666.06;5022070;28;20029;-72
2023/08/09 06:27:51;;;;;;;6.93;3.58;;;;;;;20.80;52.36;99663.78;5032300;28;20392;-72
2023/08/09 06:30:16;;;;;;;5.28;3.10;;;;;;;21.03;51.58;99651.31;5033500;28;20026;-73
2023/08/09 06:32:42;;;;;;;8.15;3.25;;;;;;;20.82;51.40;99650.03;5033349;28;20022;-73
2023/08/09 06:35:09;;;;;;;3.10;2.83;;;;;;;20.94;50.94;99643.16;5032947;28;20056;-74
2023/08/09 06:37:35;;;;;;;3.40;3.08;;;;;;;20.95;50.74;99646.81;5031141;28;20488;-73
2023/08/09 06:40:00;;;;;;;4.20;3.40;;;;;;;20.58;51.55;99646.66;5031788;28;20041;-72
2023/08/09 06:42:26;;;;;;;3.58;2.63;;;;;;;20.99;51.10;99644.78;5033051;28;20025;-73
2023/08/09 06:44:51;;;;;;;3.20;2.90;;;;;;;21.43;49.99;99655.03;5030278;28;20079;-73
2023/08/09 06:47:17;;;;;;;5.85;2.83;;;;;;;21.72;49.00;99655.06;5026330;28;20105;-73
2023/08/09 06:49:42;;;;;;;4.18;2.50;;;;;;;21.54;48.69;99657.06;5033034;28;20106;-73
2023/08/09 06:52:08;;;;;;;4.78;2.70;;;;;;;21.88;48.33;99651.00;5031885;28;20422;-73
2023/08/09 06:54:33;;;;;;;3.55;2.72;;;;;;;21.96;47.37;99652.63;5027324;28;20029;-73
2023/08/09 06:56:59;;;;;;;4.38;3.20;;;;;;;21.61;47.66;99645.69;5028160;28;20056;-77
2023/08/09 06:59:24;;;;;;;3.40;3.00;;;;;;;21.88;47.34;99640.41;5030978;28;20038;-73
2023/08/09 07:01:50;;;;;;;3.25;2.95;;;;;;;21.76;47.17;99637.16;5032930;28;20397;-73
2023/08/09 07:04:16;;;;;;;4.43;3.30;;;;;;;21.85;47.75;99638.38;5030901;28;20067;-73
2023/08/09 07:06:42;;;;;;;5.70;3.03;;;;;;;21.76;47.76;99637.97;5044827;28;20029;-74
2023/08/09 07:09:07;;;;;;;4.05;3.10;;;;;;;22.10;47.45;99634.66;5032207;28;20029;-73
2023/08/09 07:11:33;;;;;;;6.15;2.95;;;;;;;22.13;46.69;99630.19;5031849;28;20018;-74
2023/08/09 07:13:59;;;;;;;3.53;3.20;;;;;;;22.02;47.07;99633.88;5032596;28;20428;-75
2023/08/09 07:16:25;;;;;;;7.47;2.90;;;;;;;22.43;47.74;99629.69;5032357;28;20025;-73
2023/08/09 07:18:50;;;;;;;4.03;2.35;;;;;;;22.09;46.53;99632.25;5031988;28;20036;-74
2023/08/09 07:21:16;;;;;;;2.72;2.50;;;;;;;22.12;46.62;99637.13;5031441;28;20029;-74
2023/08/09 07:23:42;;;;;;;7.38;3.08;;;;;;;22.42;46.86;99633.78;5029942;28;20530;-72
2023/08/09 07:26:07;;;;;;;5.53;4.68;;;;;;;22.64;45.99;99633.72;5022234;28;20503;-73
2023/08/09 07:28:33;;;;;;;7.90;3.13;;;;;;;22.27;47.20;99627.31;5029498;28;20100;-73
2023/08/09 07:30:58;;;;;;;6.43;2.97;;;;;;;22.87;47.48;99629.53;5027487;28;20022;-73
2023/08/09 07:33:24;;;;;;;3.75;2.65;;;;;;;23.16;47.85;99622.81;5020624;28;20052;-76
2023/08/09 07:35:49;;;;;;;7.38;2.97;;;;;;;23.27;47.09;99624.41;5025662;28;20052;-76
2023/08/09 07:38:16;;;;;;;3.10;2.80;;;;;;;23.50;46.08;99627.91;5024287;28;20451;-77
2023/08/09 07:40:42;;;;;;;13.43;3.40;;;;;;;23.51;43.25;99615.25;5043236;28;20056;-77
2023/08/09 07:43:07;;;;;;;5.53;2.67;;;;;;;23.08;42.33;99619.19;5029168;28;20026;-81
2023/08/09 07:45:33;;;;;;;3.85;2.38;;;;;;;23.15;43.45;99622.03;5016733;28;20029;-76
2023/08/09 07:47:58;;;;;;;3.13;2.28;;;;;;;23.48;43.32;99618.94;5016612;28;20026;-75
2023/08/09 07:50:25;;;;;;;7.00;2.55;;;;;;;23.52;41.61;99614.84;5044023;28;20026;-75
2023/08/09 07:52:51;;;;;;;3.63;2.60;;;;;;;23.78;42.26;99615.41;5015383;28;20029;-76
2023/08/09 07:55:17;;;;;;;4.72;2.45;;;;;;;23.84;41.32;99615.78;5019937;28;20022;-76
2023/08/09 07:57:43;;;;;;;2.60;2.40;;;;;;;24.03;42.77;99608.66;5022297;28;20044;-76
2023/08/09 08:00:17;;;;;;;2.83;2.53;;;;;;;24.36;40.09;99599.72;5013191;28;20125;-76
2023/08/09 08:02:44;;;;;;;3.47;2.67;;;;;;;24.14;39.75;99594.28;5016251;28;20040;-76
2023/08/09 08:05:11;;;;;;;2.40;2.20;;;;;;;23.83;41.52;99592.13;5017061;28;20044;-75
2023/08/09 08:07:38;;;;;;;4.15;2.50;;;;;;;23.90;40.71;99591.25;5017159;28;20124;-75
2023/08/09 08:10:08;;;;;;;2.42;2.22;;;;;;;24.48;40.78;99589.78;5012337;28;20026;-74
2023/08/09 08:12:33;;;;;;;5.30;2.53;;;;;;;24.71;41.32;99588.25;5021290;28;20077;-74
2023/08/09 08:15:00;;;;;;;2.50;2.30;;;;;;;23.88;41.93;99585.13;5019585;28;20022;-76
2023/08/09 08:17:26;;;;;;;6.00;2.60;;;;;;;24.41;41.96;99584.97;5020923;28;20029;-77
2023/08/09 08:19:52;;;;;;;2.47;2.13;;;;;;;24.62;43.36;99575.31;5019365;28;20396;-78
2023/08/09 08:22:18;;;;;;;4.93;2.33;;;;;;;25.16;42.28;99581.50;5028178;28;20033;-77
2023/08/09 08:24:43;;;;;;;2.00;1.80;;;;;;;25.50;41.57;99577.69;5016609;28;20540;-78
2023/08/09 08:27:09;;;;;;;4.07;2.78;;;;;;;25.48;39.53;99583.81;5021817;28;20615;-78
2023/08/09 08:29:35;;;;;;;4.18;2.13;;;;;;;25.50;38.88;99583.44;5020257;28;20055;-74
2023/08/09 08:32:00;;;;;;;2.25;2.08;;;;;;;25.53;38.40;99576.03;5044071;28;20049;-75
2023/08/09 08:34:31;;;;;;;5.18;2.10;;;;;;;25.70;39.19;99580.63;5019983;28;20485;-76
2023/08/09 08:37:00;;;;;;;1.80;1.70;;;;;;;25.90;37.68;99577.78;5014431;28;20052;-75
2023/08/09 08:39:29;;;;;;;2.63;1.80;;;;;;;26.07;38.20;99572.97;5019889;28;20143;-74
2023/08/09 08:41:56;;;;;;;4.30;1.90;;;;;;;26.26;38.00;99572.63;5011730;28;20052;-74
2023/08/09 08:44:24;;;;;;;10.57;2.42;;;;;;;26.27;37.50;99568.50;5022208;28;20096;-74
2023/08/09 08:46:51;;;;;;;5.10;1.85;;;;;;;26.32;35.55;99563.06;5016121;28;20022;-75
2023/08/09 08:49:19;;;;;;;7.97;1.80;;;;;;;26.15;36.58;99561.38;5036291;28;20037;-73
2023/08/09 08:51:49;;;;;;;3.28;2.00;;;;;;;26.36;37.71;99551.53;5022591;28;20032;-73
2023/08/09 08:54:15;;;;;;;6.50;2.08;;;;;;;26.43;36.00;99545.66;5020686;28;20033;-74
2023/08/09 08:56:41;;;;;;;2.00;1.60;;;;;;;26.65;35.71;99545.16;5026241;28;20029;-75
2023/08/09 08:59:08;;;;;;;1.95;1.65;;;;;;;26.63;35.18;99545.63;5024386;28;20018;-75
2023/08/09 09:01:34;;;;;;;2.90;1.25;;;;;;;26.42;35.23;99541.16;5021816;28;20071;-73
2023/08/09 09:04:01;;;;;;;6.82;3.65;;;;;;;26.60;35.42;99537.09;5028100;28;20045;-74
2023/08/09 09:06:27;;;;;;;16.02;6.38;;;;;;;26.81;36.02;99535.78;5019201;28;20030;-74
2023/08/09 09:08:57;;;;;;;112.63;43.65;;;;;;;26.94;35.73;99530.19;5026162;28;20036;-73
2023/08/09 09:11:23;;;;;;;148.52;57.17;;;;;;;26.97;35.32;99528.47;5025669;28;20109;-76
2023/08/09 09:13:50;;;;;;;62.13;28.33;;;;;;;27.11;34.88;99524.44;5026405;28;20063;-71
2023/08/09 09:16:17;;;;;;;17.52;10.27;;;;;;;27.40;34.86;99526.59;5022751;28;20041;-73
2023/08/09 09:18:48;;;;;;;3.85;2.17;;;;;;;27.25;33.77;99526.16;5025878;28;20030;-73
2023/08/09 09:21:16;;;;;;;5.03;1.80;;;;;;;27.20;34.55;99527.50;5024907;28;20083;-73
2023/08/09 09:23:42;;;;;;;2.45;1.30;;;;;;;27.21;34.25;99517.63;5023149;28;20392;-73
2023/08/09 09:26:20;;;;;;;2.03;1.27;;;;;;;27.42;33.58;99516.25;5025479;28;20064;-77
2023/08/09 09:28:47;;;;;;;5.13;1.50;;;;;;;27.54;33.92;99514.75;5022891;28;20132;-80
2023/08/09 09:31:17;;;;;;;2.42;1.40;;;;;;;27.81;34.59;99510.75;5016905;28;20704;-73
2023/08/09 09:33:51;;;;;;;2.33;1.77;;;;;;;27.46;33.71;99507.56;5032891;28;20453;-71
2023/08/09 09:36:18;;;;;;;2.60;1.30;;;;;;;27.40;34.57;99492.16;5023388;28;20033;-73
2023/08/09 09:38:45;;;;;;;1.58;1.25;;;;;;;27.66;33.99;99500.91;5027860;28;20033;-73
2023/08/09 09:41:13;;;;;;;3.03;1.40;;;;;;;27.77;33.39;99492.81;5026392;28;20045;-73
2023/08/09 09:43:41;;;;;;;2.33;1.58;;;;;;;27.93;33.06;99497.66;5027086;28;20037;-76
2023/08/09 09:46:20;;;;;;;2.65;1.75;;;;;;;28.00;32.87;99488.06;5026306;28;20040;-76
2023/08/09 09:48:48;;;;;;;2.57;1.77;;;;;;;28.31;32.76;99487.56;5024504;28;20034;-73
2023/08/09 09:51:18;;;;;;;3.88;1.58;;;;;;;28.25;32.15;99490.19;5029869;28;20464;-73
2023/08/09 09:53:45;;;;;;;11.23;1.42;;;;;;;28.33;32.20;99482.16;5046731;28;20033;-75
2023/08/09 09:56:11;;;;;;;3.05;1.15;;;;;;;28.72;32.47;99487.94;5024829;28;20033;-74
2023/08/09 09:58:37;;;;;;;3.00;1.58;;;;;;;28.82;32.23;99478.19;5018769;28;20025;-74
2023/08/09 10:01:03;;;;;;;1.73;1.27;;;;;;;28.70;32.03;99485.50;5022063;28;20041;-73
2023/08/09 10:03:31;;;;;;;1.80;1.17;;;;;;;28.58;31.23;99481.38;5029026;28;20412;-78
2023/08/09 10:05:59;;;;;;;2.97;1.40;;;;;;;28.57;31.66;99479.78;5035467;28;20033;-79
2023/08/09 10:08:27;;;;;;;2.92;1.40;;;;;;;28.57;31.09;99476.06;5028184;28;20026;-81
2023/08/09 10:10:56;;;;;;;5.35;1.23;;;;;;;28.44;31.28;99479.75;5023498;28;20024;-74
2023/08/09 10:13:24;;;;;;;4.10;1.00;;;;;;;28.66;31.15;99472.50;5034923;28;20128;-75
2023/08/09 10:15:54;;;;;;;2.42;1.30;;;;;;;28.86;31.00;99487.50;5019222;28;20036;-75
2023/08/09 10:18:26;;;;;;;2.30;1.38;;;;;;;29.11;30.58;99474.34;5027686;28;20071;-79
2023/08/09 10:20:55;;;;;;;7.22;1.83;;;;;;;29.22;30.20;99479.75;5018445;28;20041;-76
2023/08/09 10:23:26;;;;;;;2.30;1.73;;;;;;;29.18;29.32;99470.41;5017520;28;20037;-73
2023/08/09 10:25:54;;;;;;;4.72;1.25;;;;;;;28.94;29.71;99467.91;5027984;28;20037;-73
2023/08/09 10:28:40;;;;;;;1.75;1.02;;;;;;;28.72;29.72;99465.75;5020902;28;20629;-78
2023/08/09 10:31:06;;;;;;;1.30;1.20;;;;;;;28.84;30.98;99460.44;5023795;28;20064;-75
2023/08/09 10:33:32;;;;;;;10.10;1.63;;;;;;;28.99;30.38;99458.72;5026424;28;20030;-75
2023/08/09 10:35:57;;;;;;;2.25;1.45;;;;;;;29.09;30.10;99453.06;5017891;28;20548;-75
2023/08/09 10:38:32;;;;;;;1.77;1.23;;;;;;;29.05;29.54;99446.59;5014005;28;20091;-76
2023/08/09 10:41:06;;;;;;;1.00;0.90;;;;;;;28.83;29.82;99444.44;5020192;28;20059;-76
2023/08/09 10:43:34;;;;;;;2.60;1.65;;;;;;;28.90;30.50;99437.63;5020350;28;20467;-76
2023/08/09 10:46:20;;;;;;;1.52;1.23;;;;;;;29.14;31.16;99438.88;5029008;28;20032;-76
2023/08/09 10:48:54;;;;;;;3.72;1.40;;;;;;;29.10;30.12;99434.50;5019130;28;20436;-76
2023/08/09 10:51:21;;;;;;;1.75;1.30;;;;;;;29.22;29.36;99438.59;5023443;28;20513;-76
2023/08/09 10:54:04;;;;;;;4.97;0.85;;;;;;;29.11;30.31;99424.59;5035533;28;20075;-76
2023/08/09 10:56:42;;;;;;;4.38;1.10;;;;;;;29.10;28.83;99432.41;5043636;28;20029;-76
2023/08/09 10:59:14;;;;;;;1.23;1.10;;;;;;;29.31;29.40;99412.78;5027457;28;20120;-76
2023/08/09 11:01:42;;;;;;;2.53;1.13;;;;;;;29.63;28.84;99413.72;5024223;28;20579;-76
2023/08/09 11:04:09;;;;;;;1.23;1.00;;;;;;;29.72;27.83;99421.63;5023775;28;20536;-76
2023/08/09 11:06:37;;;;;;;1.85;1.17;;;;;;;29.50;28.67;99424.47;5025920;28;20475;-76
2023/08/09 11:09:14;;;;;;;2.92;1.20;;;;;;;29.33;28.26;99400.81;5021283;28;20029;-76
2023/08/09 11:11:41;;;;;;;1.98;1.67;;;;;;;29.56;27.82;99414.78;5022131;28;20030;-76
2023/08/09 11:14:08;;;;;;;1.60;1.20;;;;;;;29.81;27.75;99407.28;5027422;28;20460;-76
2023/08/09 11:16:34;;;;;;;3.92;1.30;;;;;;;29.88;27.75;99406.19;5012579;28;20373;-76
2023/08/09 11:19:08;;;;;;;3.50;0.85;;;;;;;29.96;27.64;99398.06;5017482;28;20037;-76
2023/08/09 11:21:37;;;;;;;1.88;1.20;;;;;;;30.08;26.56;99388.56;5016118;28;20484;-76
2023/08/09 11:24:03;;;;;;;2.22;1.42;;;;;;;29.81;28.19;99392.06;5017378;28;20128;-76
2023/08/09 11:26:28;;;;;;;1.45;1.25;;;;;;;29.57;28.56;99392.53;5020182;28;20101;-76
2023/08/09 11:28:54;;;;;;;2.00;1.25;;;;;;;29.58;27.57;99387.59;5011627;28;20022;-76
2023/08/09 11:31:20;;;;;;;1.23;1.02;;;;;;;29.33;27.88;99387.19;5015759;28;20437;-76